Time;durP1;ratioP1;P1;durP2;ratioP2;P2;SDS_P1;SDS_P2;PMS_P1;PMS_P2;Temp;Humidity;BMP_temperature;BMP_pressure;BME280_temperature;BME280_humidity;BME280_pressure;Samples;Min_cycle;Max_cycle;Signal;HPM_P1;HPM_P2
2022/06/16 00:00:36;;;;;;;8.10;5.20;;;12.50;99.90;;;;;;4965543;28;20046;-90
2022/06/16 00:03:07;;;;;;;6.85;5.40;;;12.50;99.90;;;;;;4964798;28;20050;-90
2022/06/16 00:05:35;;;;;;;6.50;4.30;;;12.50;99.90;;;;;;4995483;28;20074;-89
2022/06/16 00:08:06;;;;;;;9.57;5.90;;;12.40;99.90;;;;;;4962423;28;20039;-89
2022/06/16 00:10:33;;;;;;;10.40;5.93;;;12.30;99.90;;;;;;4963024;28;20081;-90
2022/06/16 00:12:59;;;;;;;10.60;7.22;;;12.20;99.90;;;;;;4965399;28;20076;-90
2022/06/16 00:15:27;;;;;;;12.05;5.90;;;12.30;99.90;;;;;;4965409;28;20108;-90
2022/06/16 00:18:00;;;;;;;10.75;5.90;;;12.30;99.90;;;;;;4967286;28;20038;-90
2022/06/16 00:20:26;;;;;;;10.63;5.55;;;12.40;99.90;;;;;;4968538;28;20599;-90
2022/06/16 00:22:51;;;;;;;13.02;5.70;;;12.30;99.90;;;;;;4979516;28;20533;-90
2022/06/16 00:25:17;;;;;;;8.60;5.88;;;12.40;99.90;;;;;;4963603;28;20538;-89
2022/06/16 00:27:46;;;;;;;8.15;5.78;;;12.30;99.90;;;;;;4970800;28;20122;-89
2022/06/16 00:30:12;;;;;;;7.35;5.43;;;12.30;99.90;;;;;;4960961;28;20042;-89
2022/06/16 00:32:41;;;;;;;7.38;5.50;;;12.30;99.90;;;;;;4991736;28;20093;-90
2022/06/16 00:35:07;;;;;;;8.15;5.13;;;12.30;99.90;;;;;;4967928;28;20049;-90
2022/06/16 00:37:33;;;;;;;8.30;5.05;;;12.30;99.90;;;;;;4978088;28;20031;-90
2022/06/16 00:39:59;;;;;;;11.35;6.20;;;12.30;99.90;;;;;;4992325;28;20062;-90
2022/06/16 00:42:25;;;;;;;5.63;4.35;;;12.10;99.90;;;;;;4971146;28;20077;-90
2022/06/16 00:44:56;;;;;;;7.03;5.20;;;12.00;99.90;;;;;;4962401;28;20050;-90
2022/06/16 00:47:27;;;;;;;9.88;5.60;;;12.00;99.90;;;;;;4965800;28;20074;-90
2022/06/16 00:49:56;;;;;;;7.05;5.10;;;12.00;99.90;;;;;;4975684;28;20496;-89
2022/06/16 00:52:31;;;;;;;7.57;5.40;;;12.00;99.90;;;;;;4961648;28;20113;-89
2022/06/16 00:55:16;;;;;;;9.95;5.38;;;12.00;99.90;;;;;;4984240;28;20050;-89
2022/06/16 00:57:48;;;;;;;8.07;5.72;;;11.90;99.90;;;;;;4970370;28;20038;-91
2022/06/16 01:00:35;;;;;;;7.82;5.20;;;12.00;99.90;;;;;;4963561;28;20035;-89
2022/06/16 01:03:04;;;;;;;8.40;5.70;;;12.00;99.90;;;;;;4966829;28;20034;-90
2022/06/16 01:05:30;;;;;;;7.78;5.25;;;11.90;99.90;;;;;;4971701;28;20050;-90
2022/06/16 01:07:57;;;;;;;7.40;6.10;;;11.80;99.90;;;;;;4966873;28;20039;-90
2022/06/16 01:10:33;;;;;;;8.75;5.63;;;11.80;99.90;;;;;;4969242;28;20049;-90
2022/06/16 01:13:42;;;;;;;7.82;5.05;;;11.80;99.90;;;;;;4968478;28;20062;-90
2022/06/16 01:16:43;;;;;;;6.45;4.78;;;11.60;99.90;;;;;;4964586;28;20129;-90
2022/06/16 01:19:35;;;;;;;8.45;5.30;;;11.50;99.90;;;;;;4969625;28;20050;-90
2022/06/16 01:22:31;;;;;;;13.75;6.05;;;11.50;99.90;;;;;;4967982;28;20050;-89
2022/06/16 01:25:07;;;;;;;6.50;4.88;;;11.50;99.90;;;;;;4968964;28;20140;-90
2022/06/16 01:27:41;;;;;;;7.82;5.90;;;11.50;99.90;;;;;;4968173;28;20039;-91
2022/06/16 01:30:19;;;;;;;7.07;5.25;;;11.60;99.90;;;;;;4965889;28;20050;-90
2022/06/16 01:33:01;;;;;;;7.63;5.30;;;11.60;99.90;;;;;;4978378;28;20611;-91
2022/06/16 01:35:52;;;;;;;8.48;5.32;;;11.60;99.90;;;;;;4983420;28;20070;-90
2022/06/16 01:38:46;;;;;;;7.10;5.07;;;11.50;99.90;;;;;;4950980;28;20117;-90
2022/06/16 01:41:27;;;;;;;10.95;5.75;;;11.60;99.90;;;;;;4969160;28;20338;-90
2022/06/16 01:43:57;;;;;;;9.65;5.35;;;11.60;99.90;;;;;;4969411;28;20494;-90
2022/06/16 01:46:26;;;;;;;8.52;5.78;;;11.60;99.90;;;;;;4968535;28;20116;-90
2022/06/16 01:49:01;;;;;;;6.68;4.68;;;11.60;99.90;;;;;;4973362;28;20042;-90
2022/06/16 01:51:48;;;;;;;11.05;6.18;;;11.60;99.90;;;;;;4978607;28;20074;-90
2022/06/16 01:54:20;;;;;;;6.75;4.80;;;11.60;99.90;;;;;;4967095;28;20043;-90
2022/06/16 01:57:00;;;;;;;6.95;6.22;;;11.50;99.90;;;;;;4966231;28;20054;-90
2022/06/16 01:59:32;;;;;;;9.45;5.95;;;11.50;99.90;;;;;;4980417;28;20101;-90
2022/06/16 02:02:07;;;;;;;8.40;5.50;;;11.60;99.90;;;;;;4969880;28;20509;-90
2022/06/16 02:05:05;;;;;;;9.18;6.03;;;11.60;99.90;;;;;;4982351;28;20030;-90
2022/06/16 02:07:52;;;;;;;10.43;5.78;;;11.70;99.90;;;;;;4947404;28;20043;-90
2022/06/16 02:10:27;;;;;;;5.55;4.82;;;11.70;99.90;;;;;;4984562;28;20042;-91
2022/06/16 02:12:56;;;;;;;11.02;5.60;;;11.60;99.90;;;;;;4987769;28;20497;-88
2022/06/16 02:15:40;;;;;;;9.48;5.50;;;11.60;99.90;;;;;;4968049;28;20715;-91
2022/06/16 02:18:10;;;;;;;7.75;5.10;;;11.60;99.90;;;;;;4950341;28;20404;-90
2022/06/16 02:20:50;;;;;;;9.73;6.57;;;11.50;99.90;;;;;;4966805;28;20113;-91
2022/06/16 02:23:16;;;;;;;8.98;6.10;;;11.50;99.90;;;;;;4987010;28;20069;-90
2022/06/16 02:25:44;;;;;;;11.95;6.68;;;11.60;99.90;;;;;;4964059;28;20089;-90
2022/06/16 02:28:12;;;;;;;8.23;6.20;;;11.60;99.90;;;;;;4966474;28;20054;-90
2022/06/16 02:30:58;;;;;;;8.70;5.43;;;11.60;99.90;;;;;;4966796;28;20050;-91
2022/06/16 02:33:50;;;;;;;8.82;5.78;;;11.50;99.90;;;;;;4969156;28;20490;-90
2022/06/16 02:36:38;;;;;;;7.60;5.40;;;11.50;99.90;;;;;;4981007;28;20034;-91
2022/06/16 02:39:09;;;;;;;8.18;5.60;;;11.50;99.90;;;;;;4968195;28;20473;-90
2022/06/16 02:42:23;;;;;;;12.68;6.53;;;11.30;99.90;;;;;;4949254;28;20038;-90
2022/06/16 02:45:13;;;;;;;11.48;7.22;;;11.30;99.90;;;;;;4908153;29;20051;-90
2022/06/16 02:48:06;;;;;;;11.80;7.25;;;11.30;1.00;;;;;;4965158;28;20047;-90
2022/06/16 02:50:39;;;;;;;9.85;7.15;;;11.30;1.00;;;;;;4963872;28;20047;-90
2022/06/16 02:53:53;;;;;;;9.95;6.32;;;11.20;1.00;;;;;;4967657;28;20066;-90
2022/06/16 02:56:34;;;;;;;6.72;5.07;;;11.10;99.90;;;;;;4970082;28;20473;-90
2022/06/16 02:59:15;;;;;;;12.95;6.28;;;11.10;99.90;;;;;;4909305;28;20051;-91
2022/06/16 03:01:45;;;;;;;8.10;6.50;;;11.10;99.90;;;;;;4982517;28;20078;-91
2022/06/16 03:04:17;;;;;;;10.43;6.90;;;11.20;99.90;;;;;;4966233;28;20485;-91
2022/06/16 03:06:43;;;;;;;10.45;7.00;;;11.10;99.90;;;;;;4987798;28;20126;-91
2022/06/16 03:09:13;;;;;;;8.95;6.78;;;11.10;1.00;;;;;;4968212;28;20549;-90
2022/06/16 03:11:39;;;;;;;11.98;7.30;;;11.00;99.90;;;;;;4968949;28;20656;-91
2022/06/16 03:14:05;;;;;;;10.02;6.32;;;11.00;1.00;;;;;;4966538;28;20038;-89
2022/06/16 03:16:32;;;;;;;10.10;6.55;;;11.00;1.00;;;;;;4963609;28;20078;-90
2022/06/16 03:18:58;;;;;;;9.52;6.70;;;11.00;1.00;;;;;;4969840;28;20125;-89
2022/06/16 03:21:24;;;;;;;10.95;6.72;;;11.00;1.00;;;;;;4970782;28;20585;-90
2022/06/16 03:23:53;;;;;;;10.43;6.93;;;11.10;1.00;;;;;;4964557;28;20352;-90
2022/06/16 03:26:21;;;;;;;13.38;7.63;;;11.10;1.00;;;;;;4980868;28;20038;-91
2022/06/16 03:28:48;;;;;;;11.05;6.88;;;11.00;1.00;;;;;;4981386;28;20082;-91
2022/06/16 03:31:14;;;;;;;9.30;7.45;;;11.00;1.00;;;;;;4964025;28;20039;-91
2022/06/16 03:33:39;;;;;;;9.30;7.03;;;11.00;1.00;;;;;;4968875;28;20422;-90
2022/06/16 03:36:05;;;;;;;12.15;7.47;;;11.00;1.00;;;;;;4981906;28;20088;-90
2022/06/16 03:38:36;;;;;;;13.73;7.15;;;11.00;1.00;;;;;;4967039;28;20474;-90
2022/06/16 03:41:02;;;;;;;12.18;6.95;;;11.00;1.00;;;;;;4994639;28;20516;-91
2022/06/16 03:43:28;;;;;;;10.30;7.25;;;11.00;1.00;;;;;;4967827;28;20042;-90
2022/06/16 03:45:54;;;;;;;7.93;6.35;;;11.10;1.00;;;;;;4965095;28;20126;-91
2022/06/16 03:48:20;;;;;;;10.10;6.72;;;11.10;1.00;;;;;;4982116;28;20390;-91
2022/06/16 03:50:49;;;;;;;8.77;6.88;;;11.00;1.00;;;;;;4965500;28;20045;-90
2022/06/16 03:53:15;;;;;;;8.13;5.68;;;11.00;1.00;;;;;;4967635;28;20058;-91
2022/06/16 03:55:40;;;;;;;11.85;7.40;;;10.90;99.90;;;;;;4963484;28;20280;-90
2022/06/16 03:58:06;;;;;;;10.77;8.90;;;11.10;1.00;;;;;;4963332;28;20078;-89
2022/06/16 04:00:33;;;;;;;11.55;8.52;;;11.20;1.00;;;;;;4969513;28;20117;-90
2022/06/16 04:05:44;;;;;;;10.65;9.13;;;11.40;1.00;;;;;;4967922;28;20589;-90
2022/06/16 04:08:10;;;;;;;10.98;8.73;;;11.50;1.00;;;;;;4966707;28;20126;-90
2022/06/16 04:10:36;;;;;;;11.32;8.60;;;11.60;1.00;;;;;;4965278;28;20062;-90
2022/06/16 04:13:02;;;;;;;11.57;8.90;;;11.60;1.00;;;;;;4971761;28;20470;-90
2022/06/16 04:15:29;;;;;;;12.25;7.97;;;11.70;1.00;;;;;;4961855;28;20043;-90
2022/06/16 04:17:54;;;;;;;7.75;7.00;;;11.80;99.90;;;;;;4968168;28;20037;-90
2022/06/16 04:20:21;;;;;;;9.68;7.75;;;11.80;99.90;;;;;;4965066;28;20356;-91
2022/06/16 04:22:50;;;;;;;10.07;8.45;;;12.00;99.90;;;;;;4967433;28;20546;-89
2022/06/16 04:25:17;;;;;;;10.02;7.63;;;12.10;1.00;;;;;;4966790;28;20050;-90
2022/06/16 04:27:44;;;;;;;8.38;7.13;;;12.20;1.00;;;;;;4963818;28;20095;-90
2022/06/16 04:30:10;;;;;;;9.95;7.28;;;12.30;1.00;;;;;;4966633;28;20042;-91
2022/06/16 04:32:36;;;;;;;12.88;8.10;;;12.50;1.00;;;;;;4965318;28;20498;-90
2022/06/16 04:35:03;;;;;;;13.25;8.10;;;12.60;1.00;;;;;;4967850;28;20035;-91
2022/06/16 04:37:32;;;;;;;12.55;8.02;;;12.80;99.90;;;;;;4966729;28;20621;-90
2022/06/16 04:40:02;;;;;;;11.80;8.10;;;12.90;1.00;;;;;;4966987;28;20397;-91
2022/06/16 04:42:27;;;;;;;10.57;7.85;;;13.00;1.00;;;;;;4970266;28;20039;-91
2022/06/16 04:44:53;;;;;;;9.02;7.63;;;13.10;99.90;;;;;;4966555;28;20058;-91
2022/06/16 04:47:19;;;;;;;9.70;7.55;;;13.30;99.90;;;;;;4966366;28;20344;-91
2022/06/16 04:49:48;;;;;;;8.73;6.93;;;13.50;99.90;;;;;;4969431;28;20707;-92
2022/06/16 04:52:15;;;;;;;11.40;7.18;;;13.70;99.90;;;;;;4962476;28;20224;-91
2022/06/16 04:55:04;;;;;;;9.25;7.57;;;13.90;99.90;;;;;;4969411;28;20061;-91
2022/06/16 04:57:33;;;;;;;12.30;8.30;;;14.20;99.90;;;;;;4966908;28;20050;-90
2022/06/16 04:59:58;;;;;;;11.77;8.15;;;14.30;99.90;;;;;;4966044;28;20122;-91
2022/06/16 05:02:24;;;;;;;13.48;8.02;;;14.60;99.90;;;;;;4973418;28;20113;-91
2022/06/16 05:04:50;;;;;;;13.48;8.32;;;14.80;99.90;;;;;;4953518;28;20058;-91
2022/06/16 05:07:15;;;;;;;10.68;7.40;;;14.80;99.90;;;;;;4967482;28;20034;-91
2022/06/16 05:09:44;;;;;;;11.50;8.02;;;14.80;99.90;;;;;;4969503;28;20042;-90
2022/06/16 05:12:10;;;;;;;10.68;7.47;;;14.80;99.90;;;;;;4966271;28;20054;-90
2022/06/16 05:14:36;;;;;;;10.55;7.18;;;14.90;99.90;;;;;;4968510;28;20038;-91
2022/06/16 05:17:02;;;;;;;9.10;7.47;;;14.90;99.90;;;;;;4982248;28;20038;-91
2022/06/16 05:19:30;;;;;;;11.13;7.68;;;14.90;99.90;;;;;;4970673;28;20031;-91
2022/06/16 05:21:57;;;;;;;12.30;7.60;;;14.90;99.90;;;;;;4967975;28;20042;-91
2022/06/16 05:24:29;;;;;;;12.80;7.50;;;14.90;99.90;;;;;;4965537;28;20105;-91
2022/06/16 05:26:55;;;;;;;11.25;7.35;;;15.00;99.90;;;;;;4968759;28;20118;-91
2022/06/16 05:29:21;;;;;;;11.20;7.85;;;14.90;99.90;;;;;;4962431;28;20129;-90
2022/06/16 05:31:47;;;;;;;11.23;7.43;;;15.00;99.90;;;;;;4963461;28;20050;-91
2022/06/16 05:34:13;;;;;;;9.75;7.03;;;15.00;99.90;;;;;;4968418;28;20046;-92
2022/06/16 05:36:39;;;;;;;11.73;7.22;;;15.00;99.90;;;;;;4971345;28;20097;-91
2022/06/16 05:39:05;;;;;;;11.95;7.22;;;15.00;99.90;;;;;;4970648;28;20042;-91
2022/06/16 05:41:31;;;;;;;10.85;7.15;;;15.10;99.90;;;;;;4963899;28;20415;-91
2022/06/16 05:43:56;;;;;;;8.65;7.22;;;15.10;99.90;;;;;;4980281;28;20086;-91
2022/06/16 05:46:23;;;;;;;9.73;7.05;;;15.30;99.90;;;;;;4965245;28;20082;-91
2022/06/16 05:48:51;;;;;;;10.23;7.30;;;15.50;99.90;;;;;;4969966;28;20050;-91
2022/06/16 05:51:22;;;;;;;9.93;6.38;;;15.40;99.90;;;;;;4968973;28;20078;-92
2022/06/16 05:53:48;;;;;;;7.97;6.28;;;15.40;99.90;;;;;;4953568;28;20038;-91
2022/06/16 05:56:14;;;;;;;9.68;6.45;;;15.40;99.90;;;;;;4981783;28;20109;-90
2022/06/16 05:58:41;;;;;;;11.68;6.18;;;15.50;99.90;;;;;;4986481;28;20038;-91
2022/06/16 06:01:07;;;;;;;9.45;6.28;;;15.70;99.90;;;;;;4966353;28;20077;-91
2022/06/16 06:03:33;;;;;;;9.45;6.13;;;15.60;99.90;;;;;;4972581;28;20482;-90
2022/06/16 06:05:59;;;;;;;10.75;6.28;;;15.70;99.90;;;;;;4967671;28;20034;-90
2022/06/16 06:16:45;;;;;;;10.07;5.75;;;16.20;99.90;;;;;;4979727;28;20070;-90
2022/06/16 06:19:23;;;;;;;10.15;5.72;;;16.30;99.90;;;;;;4968504;28;20454;-91
2022/06/16 06:22:06;;;;;;;7.18;4.93;;;16.40;99.90;;;;;;4969715;28;20053;-91
2022/06/16 06:24:35;;;;;;;6.28;4.38;;;16.40;99.90;;;;;;4972871;28;20050;-91
2022/06/16 06:27:14;;;;;;;7.97;4.57;;;16.40;99.90;;;;;;4969184;28;20130;-91
2022/06/16 06:29:44;;;;;;;10.82;4.80;;;16.40;99.90;;;;;;4966172;28;20074;-91
2022/06/16 06:32:11;;;;;;;8.18;4.68;;;16.40;99.90;;;;;;4970778;28;20134;-91
2022/06/16 06:34:37;;;;;;;7.70;5.00;;;16.60;99.90;;;;;;4955406;28;20498;-91
2022/06/16 06:37:04;;;;;;;5.88;4.22;;;16.70;99.90;;;;;;4965583;28;20074;-91
2022/06/16 06:39:30;;;;;;;7.05;4.38;;;16.80;99.90;;;;;;4970095;28;20066;-91
2022/06/16 06:41:56;;;;;;;6.95;3.22;;;16.80;99.90;;;;;;4967297;28;20062;-92
2022/06/16 06:44:21;;;;;;;5.03;2.35;;;17.00;99.90;;;;;;4965046;28;20097;-91
2022/06/16 06:46:47;;;;;;;6.70;2.70;;;17.10;64.70;;;;;;4969208;28;20046;-91
2022/06/16 06:49:13;;;;;;;4.35;2.70;;;16.90;13.80;;;;;;4963986;28;20047;-91
2022/06/16 06:51:39;;;;;;;4.00;2.63;;;17.10;28.10;;;;;;4992467;28;20082;-91
2022/06/16 06:54:05;;;;;;;7.57;2.63;;;17.10;27.60;;;;;;4965080;28;20345;-91
2022/06/16 06:56:31;;;;;;;4.57;2.60;;;17.40;50.30;;;;;;4965825;28;20031;-91
2022/06/16 06:59:00;;;;;;;5.55;2.47;;;17.30;9.40;;;;;;4967694;28;20043;-91
2022/06/16 07:01:27;;;;;;;6.20;2.42;;;17.40;1.00;;;;;;4978783;28;20145;-91
2022/06/16 07:03:52;;;;;;;4.05;2.40;;;17.50;2.70;;;;;;4966002;28;20045;-91
2022/06/16 07:06:19;;;;;;;4.03;2.30;;;17.60;1.00;;;;;;4968951;28;20046;-90
2022/06/16 07:08:46;;;;;;;5.57;2.28;;;17.30;1.00;;;;;;4967101;28;20102;-90
2022/06/16 07:11:12;;;;;;;5.70;1.85;;;17.60;1.00;;;;;;4967996;28;20522;-91
2022/06/16 07:13:38;;;;;;;3.97;2.00;;;17.40;1.00;;;;;;4965420;28;20054;-91
2022/06/16 07:16:04;;;;;;;4.38;2.08;;;17.60;1.00;;;;;;4967397;28;20038;-91
2022/06/16 07:18:33;;;;;;;4.32;2.10;;;17.60;1.00;;;;;;4968085;28;20045;-91
2022/06/16 07:20:59;;;;;;;4.68;2.50;;;17.80;1.00;;;;;;4951435;28;20129;-91
2022/06/16 07:23:26;;;;;;;6.82;1.90;;;17.90;1.00;;;;;;4968837;28;20125;-92
2022/06/16 07:25:53;;;;;;;3.65;1.70;;;17.90;1.00;;;;;;4971961;28;20459;-91
2022/06/16 07:28:19;;;;;;;4.65;1.88;;;18.00;1.00;;;;;;4965659;28;20082;-91
2022/06/16 07:30:45;;;;;;;2.95;1.80;;;18.20;1.00;;;;;;4963667;28;20101;-91
2022/06/16 07:33:12;;;;;;;3.60;1.90;;;18.20;1.00;;;;;;4969294;28;20521;-91
2022/06/16 07:35:41;;;;;;;5.35;2.08;;;18.00;1.00;;;;;;4971044;28;20050;-91
2022/06/16 07:38:08;;;;;;;4.68;2.20;;;18.20;1.00;;;;;;4962861;28;20046;-92
2022/06/16 07:40:34;;;;;;;8.15;1.92;;;18.00;1.00;;;;;;4965427;28;20058;-91
2022/06/16 07:43:00;;;;;;;4.75;2.17;;;18.20;1.00;;;;;;4964639;28;20038;-91
2022/06/16 07:45:29;;;;;;;3.55;1.60;;;18.20;1.00;;;;;;4965308;28;20114;-92
2022/06/16 07:47:57;;;;;;;5.20;1.70;;;18.60;1.00;;;;;;4979945;28;20100;-91
2022/06/16 07:50:24;;;;;;;3.45;1.58;;;18.20;1.00;;;;;;4965868;28;20044;-90
2022/06/16 07:52:50;;;;;;;4.25;1.80;;;18.30;1.00;;;;;;4979286;28;20399;-91
2022/06/16 07:55:18;;;;;;;3.92;1.70;;;18.10;1.00;;;;;;4952311;28;20576;-91
2022/06/16 07:57:47;;;;;;;4.93;1.58;;;18.20;1.00;;;;;;4969863;28;20053;-91
2022/06/16 08:00:21;;;;;;;2.55;1.50;;;18.40;1.00;;;;;;4964321;28;20138;-91
2022/06/16 08:02:47;;;;;;;6.57;1.52;;;18.40;1.00;;;;;;4969708;28;20121;-91
2022/06/16 08:05:13;;;;;;;3.47;1.52;;;18.80;1.00;;;;;;4972529;28;20549;-90
2022/06/16 08:07:41;;;;;;;3.70;1.70;;;18.90;1.00;;;;;;4968114;28;20082;-91
2022/06/16 08:10:12;;;;;;;3.92;1.80;;;18.80;1.00;;;;;;4972633;28;20039;-90
2022/06/16 08:12:42;;;;;;;3.47;1.60;;;19.00;1.00;;;;;;4970493;28;20043;-92
2022/06/16 08:15:09;;;;;;;3.78;1.88;;;18.70;1.00;;;;;;4967979;28;20152;-91
2022/06/16 08:17:38;;;;;;;6.47;1.70;;;18.90;99.90;;;;;;4968929;28;20045;-90
2022/06/16 08:20:05;;;;;;;3.42;1.70;;;19.20;1.00;;;;;;4985985;28;20390;-91
2022/06/16 08:22:31;;;;;;;5.47;1.80;;;19.30;99.90;;;;;;4967407;28;20149;-90
2022/06/16 08:24:57;;;;;;;3.28;1.80;;;19.50;99.90;;;;;;4969391;28;20043;-92
2022/06/16 08:27:28;;;;;;;4.45;1.98;;;19.40;99.90;;;;;;4980801;28;20053;-90
2022/06/16 08:29:54;;;;;;;6.10;2.00;;;19.10;99.90;;;;;;4963896;28;20057;-91
2022/06/16 08:32:21;;;;;;;5.90;2.10;;;19.50;99.90;;;;;;4965060;28;20066;-92
2022/06/16 08:34:50;;;;;;;3.00;1.88;;;19.70;99.90;;;;;;4974576;28;20065;-91
2022/06/16 08:37:16;;;;;;;4.63;2.00;;;19.60;99.90;;;;;;4969444;28;20189;-90
2022/06/16 08:39:42;;;;;;;5.00;1.90;;;19.50;99.90;;;;;;4974803;28;20042;-90
2022/06/16 08:42:19;;;;;;;4.35;1.90;;;19.60;99.90;;;;;;4973100;28;20049;-90
2022/06/16 08:45:07;;;;;;;4.00;1.80;;;20.00;99.90;;;;;;4966184;28;20109;-91
2022/06/16 08:47:45;;;;;;;4.50;1.90;;;19.60;99.90;;;;;;4969187;28;20038;-90
2022/06/16 08:50:23;;;;;;;4.10;2.25;;;19.70;99.90;;;;;;4983132;28;20030;-90
2022/06/16 08:53:16;;;;;;;4.75;2.20;;;20.00;99.90;;;;;;4968983;28;20050;-91
2022/06/16 08:56:02;;;;;;;5.50;2.20;;;19.90;99.90;;;;;;4971424;28;20035;-91
2022/06/16 08:58:42;;;;;;;5.65;2.35;;;19.80;99.90;;;;;;4996221;28;20046;-89
2022/06/16 09:01:20;;;;;;;4.47;2.00;;;19.60;99.90;;;;;;4965208;28;20042;-91
2022/06/16 09:03:46;;;;;;;3.13;2.20;;;20.40;99.90;;;;;;4969943;28;20489;-91
2022/06/16 09:06:42;;;;;;;3.97;2.17;;;20.80;99.90;;;;;;4966746;28;20047;-90
2022/06/16 09:12:24;;;;;;;4.03;2.33;;;20.50;99.90;;;;;;4964056;28;20229;-91
2022/06/16 09:15:33;;;;;;;3.83;2.20;;;20.40;99.90;;;;;;4948021;28;20042;-91
2022/06/16 09:18:26;;;;;;;6.85;2.50;;;20.40;99.90;;;;;;4964580;28;20058;-90
2022/06/16 09:21:31;;;;;;;5.13;2.63;;;20.60;99.90;;;;;;4967017;28;20248;-89
2022/06/16 09:24:30;;;;;;;4.25;2.25;;;20.50;99.90;;;;;;4995027;28;20057;-91
2022/06/16 09:27:04;;;;;;;4.53;2.55;;;20.40;99.90;;;;;;4955454;28;20050;-91
2022/06/16 09:29:43;;;;;;;3.50;2.23;;;20.80;99.90;;;;;;4979621;28;20450;-90
2022/06/16 09:32:26;;;;;;;5.22;2.45;;;20.90;99.90;;;;;;4984178;28;20042;-90
2022/06/16 09:35:07;;;;;;;4.72;2.63;;;20.90;99.90;;;;;;4989707;28;20297;-90
2022/06/16 09:37:44;;;;;;;4.65;2.60;;;21.00;99.90;;;;;;4972004;28;20042;-90
2022/06/16 09:40:31;;;;;;;4.00;2.60;;;20.80;99.90;;;;;;4970395;28;20069;-91
2022/06/16 09:43:07;;;;;;;4.38;2.60;;;20.80;99.90;;;;;;4968862;28;20057;-91
2022/06/16 09:46:01;;;;;;;6.88;2.97;;;20.60;99.90;;;;;;4981624;28;20578;-90
2022/06/16 09:48:47;;;;;;;7.15;2.90;;;20.90;99.90;;;;;;4970123;28;20051;-91
2022/06/16 09:51:17;;;;;;;5.95;3.30;;;20.90;99.90;;;;;;4968012;28;20495;-92
2022/06/16 09:54:05;;;;;;;6.70;3.28;;;20.90;99.90;;;;;;4967526;28;20118;-89
2022/06/16 09:56:39;;;;;;;4.90;3.00;;;21.10;99.90;;;;;;4967629;28;20039;-91
2022/06/16 09:59:13;;;;;;;4.60;3.15;;;21.20;99.90;;;;;;4971561;28;20414;-90
2022/06/16 10:01:46;;;;;;;4.65;2.92;;;21.70;99.90;;;;;;4962225;28;20063;-91
2022/06/16 10:04:13;;;;;;;5.55;2.90;;;21.80;99.90;;;;;;4967961;28;20122;-90
2022/06/16 10:06:57;;;;;;;6.22;2.88;;;22.10;99.90;;;;;;4967656;28;20054;-91
2022/06/16 10:09:44;;;;;;;6.30;3.03;;;21.10;99.90;;;;;;4953407;28;20241;-90
2022/06/16 10:12:13;;;;;;;4.07;2.78;;;21.50;99.90;;;;;;4994047;28;20478;-91
2022/06/16 10:15:05;;;;;;;4.95;2.65;;;21.70;99.90;;;;;;4963692;28;20361;-90
2022/06/16 10:17:34;;;;;;;5.32;2.90;;;21.60;99.90;;;;;;4963513;28;20497;-90
2022/06/16 10:20:01;;;;;;;4.55;2.70;;;21.60;99.90;;;;;;4993925;28;20043;-90
2022/06/16 10:22:32;;;;;;;5.07;2.60;;;22.00;99.90;;;;;;4968381;28;20125;-89
2022/06/16 10:25:14;;;;;;;5.05;3.00;;;22.20;99.90;;;;;;4979932;28;20042;-92
2022/06/16 10:27:44;;;;;;;4.35;3.10;;;21.60;99.90;;;;;;4987490;28;20070;-90
2022/06/16 10:30:35;;;;;;;4.63;3.22;;;21.90;99.90;;;;;;4964100;28;20073;-91
2022/06/16 10:33:21;;;;;;;4.95;2.78;;;21.80;99.90;;;;;;4967606;28;20047;-90
2022/06/16 10:35:57;;;;;;;4.32;3.20;;;22.00;99.90;;;;;;4977596;28;20060;-91
2022/06/16 10:39:05;;;;;;;6.50;2.90;;;21.50;99.90;;;;;;4968579;28;20038;-90
2022/06/16 10:41:40;;;;;;;4.60;2.72;;;21.80;99.90;;;;;;4970377;28;20069;-90
2022/06/16 10:44:12;;;;;;;2.97;2.67;;;22.00;99.90;;;;;;4978953;28;20066;-90
2022/06/16 10:46:49;;;;;;;4.45;3.08;;;22.40;99.90;;;;;;4986011;28;20050;-90
2022/06/16 10:49:19;;;;;;;4.00;2.85;;;21.80;99.90;;;;;;4967974;28;20030;-91
2022/06/16 10:52:04;;;;;;;6.68;3.10;;;21.90;99.90;;;;;;4967112;28;20166;-91
2022/06/16 10:54:33;;;;;;;7.18;3.08;;;21.80;99.90;;;;;;4969637;28;20073;-91
2022/06/16 10:57:12;;;;;;;4.47;3.13;;;22.00;99.90;;;;;;4980437;28;20098;-91
2022/06/16 10:59:42;;;;;;;4.45;2.78;;;22.20;99.90;;;;;;4964085;28;20043;-91
2022/06/16 11:02:27;;;;;;;4.60;3.10;;;21.90;99.90;;;;;;4965479;28;20038;-91
2022/06/16 11:05:11;;;;;;;;;;;21.90;99.90;;;;;;4965723;28;20074;-91
2022/06/16 11:07:41;;;;;;;5.75;3.08;;;22.10;99.90;;;;;;4966300;28;19925;-92
2022/06/16 11:10:13;;;;;;;4.40;2.53;;;22.50;99.90;;;;;;4968817;28;20117;-84
2022/06/16 11:12:47;;;;;;;4.88;2.95;;;23.20;99.90;;;;;;4989228;28;20141;-84
2022/06/16 11:15:15;;;;;;;5.90;2.80;;;23.60;99.90;;;;;;4992774;28;20067;-83
2022/06/16 11:17:50;;;;;;;6.47;2.80;;;23.40;99.90;;;;;;4976860;28;20112;-83
2022/06/16 11:20:17;;;;;;;4.57;2.80;;;22.80;99.90;;;;;;4974609;28;20054;-83
2022/06/16 11:22:47;;;;;;;4.72;3.00;;;22.60;99.90;;;;;;4980130;28;20062;-84
2022/06/16 11:25:27;;;;;;;6.22;3.20;;;23.20;99.90;;;;;;4967485;28;20046;-84
2022/06/16 11:28:20;;;;;;;4.88;3.38;;;23.00;99.90;;;;;;4963232;28;20067;-84
2022/06/16 11:30:49;;;;;;;4.40;3.15;;;23.40;99.90;;;;;;4936466;28;20054;-84
2022/06/16 11:36:32;;;;;;;4.80;2.97;;;23.10;99.90;;;;;;4961807;28;20046;-84
2022/06/16 11:39:22;;;;;;;10.45;3.63;;;23.20;99.90;;;;;;4962439;28;20117;-83
2022/06/16 11:41:51;;;;;;;4.88;2.80;;;22.20;99.90;;;;;;4963478;28;20486;-83
2022/06/16 11:44:41;;;;;;;6.28;3.08;;;21.50;99.90;;;;;;4963971;28;20070;-84
2022/06/16 11:47:32;;;;;;;4.00;2.88;;;21.90;99.90;;;;;;4972572;28;20046;-84
2022/06/16 11:50:10;;;;;;;4.70;2.90;;;21.90;99.90;;;;;;4977102;28;20104;-84
2022/06/16 11:53:23;;;;;;;6.72;3.30;;;21.60;99.90;;;;;;4963761;28;20049;-84
2022/06/16 11:55:55;;;;;;;4.60;3.35;;;21.90;99.90;;;;;;4868612;29;20236;-84
2022/06/16 11:58:49;;;;;;;4.78;3.20;;;22.40;99.90;;;;;;4869939;29;20172;-84
2022/06/16 12:01:49;;;;;;;5.85;3.20;;;22.80;99.90;;;;;;4941893;28;20853;-83
2022/06/16 12:04:36;;;;;;;4.25;3.30;;;23.10;99.90;;;;;;4976774;28;20144;-84
2022/06/16 12:07:01;;;;;;;5.72;2.92;;;23.40;99.90;;;;;;4965921;28;20395;-84
2022/06/16 12:09:40;;;;;;;4.65;3.45;;;23.40;99.90;;;;;;4964676;28;20050;-85
2022/06/16 12:12:18;;;;;;;5.88;3.00;;;23.00;99.90;;;;;;4964931;28;20054;-84
2022/06/16 12:15:02;;;;;;;4.85;3.88;;;23.10;99.90;;;;;;4945441;28;20497;-84
2022/06/16 12:17:44;;;;;;;5.40;3.25;;;22.80;99.90;;;;;;4990014;28;20121;-84
2022/06/16 12:20:34;;;;;;;7.07;3.03;;;23.00;99.90;;;;;;4965834;28;20034;-84
2022/06/16 12:23:20;;;;;;;4.50;3.28;;;23.40;99.90;;;;;;4977146;28;20049;-85
2022/06/16 12:26:29;;;;;;;5.53;2.90;;;24.60;99.90;;;;;;4982307;28;20042;-84
2022/06/16 12:29:18;;;;;;;4.38;3.17;;;24.40;99.90;;;;;;4921672;29;20051;-84
2022/06/16 12:31:44;;;;;;;5.72;3.55;;;24.20;99.90;;;;;;4939981;29;20510;-84
2022/06/16 12:34:28;;;;;;;6.18;3.53;;;23.50;99.90;;;;;;4941288;28;20062;-85
2022/06/16 12:36:56;;;;;;;4.18;2.83;;;24.30;99.90;;;;;;4975605;28;20109;-85
2022/06/16 12:39:41;;;;;;;3.70;2.72;;;25.10;99.90;;;;;;4965385;28;20177;-85
2022/06/16 12:42:13;;;;;;;4.72;2.75;;;25.00;99.90;;;;;;4976814;28;20047;-84
2022/06/16 12:44:56;;;;;;;4.10;2.70;;;24.50;99.90;;;;;;4965527;28;20054;-91
2022/06/16 12:47:27;;;;;;;6.38;3.20;;;24.60;99.90;;;;;;4968427;28;20035;-91
2022/06/16 12:50:01;;;;;;;5.00;2.95;;;23.70;99.90;;;;;;4975485;28;20045;-92
2022/06/16 12:52:30;;;;;;;4.90;2.88;;;23.40;99.90;;;;;;4967009;28;20252;-92
2022/06/16 12:55:01;;;;;;;4.80;2.92;;;23.80;99.90;;;;;;4968369;28;20193;-92
2022/06/16 12:57:39;;;;;;;4.00;2.60;;;24.00;99.90;;;;;;4970211;28;20066;-92
2022/06/16 13:00:25;;;;;;;4.53;2.80;;;24.40;99.90;;;;;;4999186;28;20095;-92
2022/06/16 13:02:59;;;;;;;3.50;2.72;;;24.80;99.90;;;;;;4971068;28;20313;-92
2022/06/16 13:05:25;;;;;;;3.80;2.65;;;24.30;99.90;;;;;;4964396;28;20097;-92
2022/06/16 13:07:53;;;;;;;8.07;2.90;;;24.10;99.90;;;;;;4964981;28;20124;-92
2022/06/16 13:10:20;;;;;;;3.80;2.80;;;24.00;99.90;;;;;;4966032;28;20189;-92
2022/06/16 13:13:05;;;;;;;6.72;3.00;;;23.90;99.90;;;;;;4968679;28;20516;-92
2022/06/16 13:15:32;;;;;;;;;;;23.60;99.90;;;;;;4960124;28;20108;-91
2022/06/16 13:18:07;;;;;;;4.18;2.55;;;24.60;99.90;;;;;;4982882;28;20021;-92
2022/06/16 13:20:34;;;;;;;4.32;2.80;;;24.90;99.90;;;;;;4991864;28;20041;-91
2022/06/16 13:23:15;;;;;;;3.72;2.70;;;24.20;99.90;;;;;;4991369;28;20050;-91
2022/06/16 13:25:51;;;;;;;6.60;2.92;;;24.00;99.90;;;;;;4962271;28;20055;-92
2022/06/16 13:28:25;;;;;;;7.22;2.90;;;24.10;99.90;;;;;;4961995;28;20494;-92
2022/06/16 13:31:11;;;;;;;5.63;3.22;;;24.30;99.90;;;;;;4963227;28;20050;-91
2022/06/16 13:33:55;;;;;;;4.70;3.05;;;24.40;99.90;;;;;;4964946;28;20051;-91
2022/06/16 13:36:30;;;;;;;5.35;2.95;;;24.80;99.90;;;;;;4985024;28;20042;-92
2022/06/16 13:38:56;;;;;;;;;;;24.90;99.90;;;;;;4967096;28;20482;-92